createdAt,value
2023-03-27T00:02:43.235Z,73.57
2023-03-27T00:06:55.356Z,74.11
2023-03-27T00:11:08.404Z,74.12
2023-03-27T00:15:21.944Z,74.34
2023-03-27T00:19:34.311Z,74.43
2023-03-27T00:23:47.060Z,75.14
2023-03-27T00:27:59.902Z,75.40
2023-03-27T00:32:11.788Z,75.11
2023-03-27T00:36:23.636Z,75.53
2023-03-27T00:40:35.461Z,75.16
2023-03-27T00:44:47.184Z,75.88
2023-03-27T00:49:03.468Z,75.88
2023-03-27T00:53:24.900Z,75.76
2023-03-27T00:57:37.140Z,76.05
2023-03-27T01:01:49.381Z,75.89
2023-03-27T01:06:02.650Z,76.45
2023-03-27T01:10:16.376Z,76.35
2023-03-27T01:14:41.270Z,76.46
2023-03-27T01:19:10.444Z,76.18
2023-03-27T01:23:59.590Z,76.21
2023-03-27T01:28:14.969Z,77.09
2023-03-27T01:32:35.718Z,77.21
2023-03-27T01:36:56.781Z,77.21
2023-03-27T01:41:18.066Z,77.45
2023-03-27T01:45:43.067Z,77.83
2023-03-27T01:50:18.075Z,78.06
2023-03-27T01:54:34.376Z,79.28
2023-03-27T01:58:49.242Z,79.26
2023-03-27T02:03:08.528Z,79.37
2023-03-27T02:07:42.461Z,79.62
2023-03-27T02:11:59.551Z,80.62
2023-03-27T02:16:19.581Z,81.56
2023-03-27T02:20:33.812Z,81.21
2023-03-27T02:24:46.425Z,81.53
2023-03-27T02:29:24.850Z,81.37
2023-03-27T02:33:42.684Z,81.59
2023-03-27T02:37:54.361Z,81.24
2023-03-27T02:42:46.044Z,80.77
2023-03-27T02:47:22.217Z,81.09
2023-03-27T02:51:45.110Z,80.96
2023-03-27T02:56:03.643Z,80.66
2023-03-27T03:00:28.510Z,80.77
2023-03-27T03:05:10.964Z,80.54
2023-03-27T03:09:25.257Z,80.81
2023-03-27T03:13:37.193Z,81.04
2023-03-27T03:17:50.055Z,81.02
2023-03-27T03:22:01.854Z,81.17
2023-03-27T03:26:16.731Z,81.47
2023-03-27T03:30:31.740Z,81.69
2023-03-27T03:34:50.236Z,81.95
2023-03-27T03:39:03.464Z,83.08
2023-03-27T03:43:15.657Z,82.92
2023-03-27T03:47:28.227Z,83.26
2023-03-27T03:51:40.579Z,83.66
2023-03-27T03:55:53.449Z,84.24
2023-03-27T04:00:08.837Z,84.29
2023-03-27T04:04:32.197Z,84.67
2023-03-27T04:08:52.820Z,84.77
2023-03-27T04:13:24.983Z,84.86
2023-03-27T04:17:48.371Z,84.85
2023-03-27T04:22:03.785Z,84.46
2023-03-27T04:26:19.394Z,84.75
2023-03-27T04:30:54.253Z,84.23
2023-03-27T04:35:25.255Z,84.28
2023-03-27T04:39:53.320Z,83.84
2023-03-27T04:44:05.636Z,83.71
2023-03-27T04:48:17.885Z,83.73
2023-03-27T04:52:35.031Z,83.49
2023-03-27T04:56:46.917Z,83.78
2023-03-27T05:00:59.016Z,83.76
2023-03-27T05:05:29.675Z,83.97
2023-03-27T05:09:42.288Z,83.66
2023-03-27T05:13:54.141Z,83.73
2023-03-27T05:18:09.343Z,83.72
2023-03-27T05:22:21.917Z,84.29
2023-03-27T05:26:41.436Z,83.86
2023-03-27T05:30:53.427Z,84.61
2023-03-27T05:35:07.186Z,84.85
2023-03-27T05:40:20.594Z,85.16
2023-03-27T05:44:30.291Z,85.61
2023-03-27T05:48:42.515Z,85.70
2023-03-27T05:57:46.262Z,85.87
2023-03-27T06:02:02.655Z,86.20
2023-03-27T06:06:29.677Z,85.83
2023-03-27T06:15:48.410Z,86.38
2023-03-27T06:20:13.135Z,86.89
2023-03-27T06:24:27.313Z,85.99
2023-03-27T06:28:40.470Z,85.53
2023-03-27T06:32:57.755Z,83.17
2023-03-27T06:37:10.433Z,77.30
2023-03-27T06:41:25.547Z,74.98
2023-03-27T06:45:57.826Z,70.58
2023-03-27T06:50:43.377Z,69.39
2023-03-27T06:54:59.139Z,65.09
2023-03-27T06:59:11.592Z,64.94
2023-03-27T07:03:24.365Z,64.64
2023-03-27T07:07:45.737Z,65.45
2023-03-27T07:11:59.294Z,63.43
2023-03-27T07:16:12.547Z,59.81
2023-03-27T07:20:27.853Z,58.91
2023-03-27T07:24:44.204Z,59.26
2023-03-27T07:28:58.507Z,59.56
2023-03-27T07:33:13.006Z,58.64
2023-03-27T07:37:25.893Z,57.22
2023-03-27T07:41:56.111Z,57.45
2023-03-27T07:46:24.424Z,58.25
2023-03-27T07:50:38.061Z,58.12
2023-03-27T07:54:51.503Z,59.64
2023-03-27T07:59:06.504Z,60.42
2023-03-27T08:03:20.267Z,61.07
2023-03-27T08:07:39.352Z,61.36
2023-03-27T08:11:51.841Z,59.86
2023-03-27T08:16:17.963Z,55.83
2023-03-27T08:20:30.642Z,53.59
2023-03-27T08:24:43.545Z,52.23
2023-03-27T08:29:04.392Z,48.04
2023-03-27T08:33:19.412Z,47.12
2023-03-27T08:37:31.592Z,45.79
2023-03-27T08:42:13.244Z,46.70
2023-03-27T08:46:42.794Z,46.76
2023-03-27T08:51:05.662Z,48.23
2023-03-27T08:55:41.709Z,50.64
2023-03-27T09:00:08.405Z,53.31
2023-03-27T09:04:31.597Z,54.36
2023-03-27T09:08:53.296Z,50.84
2023-03-27T09:13:28.834Z,49.94
2023-03-27T09:17:50.096Z,46.80
2023-03-27T09:22:14.414Z,45.44
2023-03-27T09:26:41.465Z,44.35
2023-03-27T09:31:29.329Z,43.16
2023-03-27T09:35:42.635Z,42.15
2023-03-27T09:39:56.678Z,41.61
2023-03-27T09:44:25.589Z,40.95
2023-03-27T09:48:50.447Z,41.37
2023-03-27T09:53:23.519Z,40.13
2023-03-27T09:57:43.701Z,38.46
2023-03-27T10:01:58.557Z,37.73
2023-03-27T10:06:14.518Z,38.15
2023-03-27T10:10:45.827Z,40.83
2023-03-27T10:15:31.547Z,44.25
2023-03-27T10:19:45.104Z,47.92
2023-03-27T10:24:18.908Z,50.31
2023-03-27T10:28:51.712Z,48.95
2023-03-27T10:33:08.660Z,46.49
2023-03-27T10:37:41.132Z,45.60
2023-03-27T10:42:32.257Z,42.23
2023-03-27T10:46:47.150Z,40.70
2023-03-27T10:51:04.642Z,39.65
2023-03-27T10:56:02.372Z,39.00
2023-03-27T11:00:26.536Z,37.86
2023-03-27T11:04:58.964Z,37.58
2023-03-27T11:09:24.554Z,37.21
2023-03-27T11:13:48.016Z,36.93
2023-03-27T11:18:01.488Z,36.00
2023-03-27T11:22:33.879Z,36.04
2023-03-27T11:27:14.425Z,36.53
2023-03-27T11:31:40.926Z,37.98
2023-03-27T11:36:04.239Z,37.40
2023-03-27T11:40:44.736Z,35.84
2023-03-27T11:44:57.134Z,36.54
2023-03-27T11:49:49.419Z,39.89
2023-03-27T11:54:24.769Z,42.38
2023-03-27T11:58:51.165Z,44.29
2023-03-27T12:03:18.638Z,46.26
2023-03-27T12:07:57.732Z,44.88
2023-03-27T12:12:41.220Z,41.96
2023-03-27T12:16:56.663Z,42.45
2023-03-27T12:21:29.759Z,42.63
2023-03-27T12:26:18.288Z,42.41
2023-03-27T12:30:47.738Z,41.26
2023-03-27T12:35:06.496Z,41.86
2023-03-27T12:39:27.432Z,40.56
2023-03-27T12:43:46.153Z,40.80
2023-03-27T12:48:11.377Z,41.00
2023-03-27T12:52:41.842Z,40.47
2023-03-27T12:57:06.198Z,40.94
2023-03-27T13:02:08.728Z,39.97
2023-03-27T13:06:29.386Z,40.50
2023-03-27T13:10:55.356Z,43.08
2023-03-27T13:15:38.708Z,46.62
2023-03-27T13:20:16.683Z,49.13
2023-03-27T13:24:56.676Z,49.94
2023-03-27T13:29:20.770Z,49.08
2023-03-27T13:33:43.847Z,48.19
2023-03-27T13:37:58.399Z,47.02
2023-03-27T13:42:35.338Z,46.42
2023-03-27T13:46:52.424Z,43.91
2023-03-27T13:51:33.612Z,44.21
2023-03-27T13:55:56.851Z,44.00
2023-03-27T14:01:18.667Z,44.62
2023-03-27T14:06:09.150Z,44.65
2023-03-27T14:10:58.380Z,44.97
2023-03-27T14:15:32.149Z,45.73
2023-03-27T14:20:15.186Z,46.47
2023-03-27T14:24:49.168Z,46.50
2023-03-27T14:29:12.165Z,45.70
2023-03-27T14:33:28.775Z,45.51
2023-03-27T14:37:42.274Z,45.85
2023-03-27T14:42:16.622Z,45.80
2023-03-27T14:46:33.660Z,46.27
2023-03-27T14:50:53.272Z,45.65
2023-03-27T14:55:07.582Z,46.02
2023-03-27T14:59:35.090Z,46.17
2023-03-27T15:03:54.376Z,45.98
2023-03-27T15:08:12.952Z,44.82
2023-03-27T15:12:55.766Z,43.39
2023-03-27T15:17:19.300Z,42.73
2023-03-27T15:21:46.606Z,42.21
2023-03-27T15:26:12.769Z,43.39
2023-03-27T15:30:37.387Z,45.28
2023-03-27T15:34:56.837Z,46.48
2023-03-27T15:39:21.112Z,47.41
2023-03-27T15:43:33.878Z,48.14
2023-03-27T15:48:00.858Z,48.73
2023-03-27T15:52:34.645Z,49.49
2023-03-27T15:56:49.753Z,50.29
2023-03-27T16:01:18.096Z,50.43
2023-03-27T16:05:32.416Z,49.89
2023-03-27T16:10:02.244Z,49.59
2023-03-27T16:14:36.906Z,46.42
2023-03-27T16:18:51.591Z,42.61
2023-03-27T16:23:04.285Z,41.30
2023-03-27T16:27:17.245Z,40.77
2023-03-27T16:31:28.887Z,41.42
2023-03-27T16:35:40.690Z,43.74
2023-03-27T16:39:54.179Z,46.11
2023-03-27T16:44:05.853Z,47.00
2023-03-27T16:48:17.601Z,48.51
2023-03-27T16:52:29.313Z,49.46
2023-03-27T16:56:41.392Z,50.74
2023-03-27T17:00:53.296Z,50.65
2023-03-27T17:05:08.166Z,50.56
2023-03-27T17:09:20.554Z,51.03
2023-03-27T17:13:32.693Z,51.17
2023-03-27T17:17:45.403Z,51.84
2023-03-27T17:21:57.206Z,51.76
2023-03-27T17:26:14.093Z,51.71
2023-03-27T17:30:37.988Z,51.11
2023-03-27T17:34:52.206Z,50.70
2023-03-27T17:39:08.399Z,50.12
2023-03-27T17:43:20.337Z,51.02
2023-03-27T17:47:32.089Z,53.41
2023-03-27T17:51:43.895Z,54.78
2023-03-27T17:55:59.826Z,55.95
2023-03-27T18:00:12.209Z,56.90
2023-03-27T18:04:26.945Z,58.32
2023-03-27T18:08:38.955Z,58.23
2023-03-27T18:12:50.829Z,58.97
2023-03-27T18:17:02.638Z,59.61
2023-03-27T18:21:16.142Z,59.49
2023-03-27T18:25:28.946Z,59.97
2023-03-27T18:29:40.838Z,59.95
2023-03-27T18:33:52.793Z,60.01
2023-03-27T18:38:06.206Z,59.65
2023-03-27T18:42:18.047Z,59.86
2023-03-27T18:46:29.975Z,59.89
2023-03-27T18:50:42.313Z,60.12
2023-03-27T18:54:54.173Z,60.18
2023-03-27T18:59:08.116Z,59.96
2023-03-27T19:03:23.397Z,60.46
2023-03-27T19:07:36.815Z,60.63
2023-03-27T19:12:00.509Z,60.96
2023-03-27T19:16:31.410Z,61.03
2023-03-27T19:21:15.821Z,61.39
2023-03-27T19:25:34.064Z,61.36
2023-03-27T19:29:45.982Z,61.42
2023-03-27T19:33:57.740Z,61.74
2023-03-27T19:38:09.635Z,62.13
2023-03-27T19:42:21.505Z,63.04
2023-03-27T19:46:33.400Z,62.83
2023-03-27T19:50:45.577Z,63.12
2023-03-27T19:55:00.363Z,63.43
2023-03-27T19:59:20.751Z,63.28
2023-03-27T20:03:38.659Z,63.51
2023-03-27T20:07:50.913Z,62.99
2023-03-27T20:12:06.584Z,63.21
2023-03-27T20:16:22.923Z,63.92
2023-03-27T20:21:09.696Z,63.90
2023-03-27T20:30:15.041Z,64.19
2023-03-27T20:34:32.921Z,64.30
2023-03-27T20:38:54.407Z,64.76
2023-03-27T20:43:37.422Z,64.68
2023-03-27T20:48:07.140Z,64.52
2023-03-27T21:02:20.457Z,65.91
2023-03-27T21:06:58.487Z,66.21
2023-03-27T21:11:10.679Z,66.34
2023-03-27T21:20:12.673Z,66.61
2023-03-27T21:24:24.333Z,66.76
2023-03-27T21:28:35.980Z,67.28
2023-03-27T21:32:49.112Z,67.34
2023-03-27T21:37:02.556Z,67.88
2023-03-27T21:41:16.206Z,68.38
2023-03-27T21:45:27.779Z,68.46
2023-03-27T21:49:39.305Z,68.55
2023-03-27T21:53:51.029Z,69.18
2023-03-27T21:58:02.587Z,69.11
2023-03-27T22:02:14.163Z,69.40
2023-03-27T22:06:25.971Z,69.75
2023-03-27T22:10:37.697Z,70.42
2023-03-27T22:14:49.374Z,69.73
2023-03-27T22:19:01.318Z,69.85
2023-03-27T22:23:12.824Z,70.08
2023-03-27T22:27:24.412Z,69.87
2023-03-27T22:31:36.428Z,70.49
2023-03-27T22:35:48.971Z,70.74
2023-03-27T22:40:00.792Z,70.71
2023-03-27T22:44:12.502Z,70.70
2023-03-27T22:48:24.062Z,70.71
2023-03-27T22:52:35.558Z,71.14
2023-03-27T22:56:47.561Z,71.07
2023-03-27T23:00:59.388Z,71.13
2023-03-27T23:05:11.007Z,71.47
2023-03-27T23:09:22.496Z,71.45
2023-03-27T23:13:34.797Z,71.58
2023-03-27T23:17:46.513Z,71.89
2023-03-27T23:21:58.081Z,71.98
2023-03-27T23:26:10.282Z,72.32
2023-03-27T23:30:21.872Z,73.07
2023-03-27T23:34:33.442Z,73.46
2023-03-27T23:38:45.222Z,73.26
2023-03-27T23:42:56.764Z,73.18
2023-03-27T23:47:08.249Z,73.60
2023-03-27T23:51:19.925Z,73.41
2023-03-27T23:55:31.488Z,73.52
2023-03-27T23:59:43.058Z,73.88
